Time;durP1;ratioP1;P1;durP2;ratioP2;P2;SDS_P1;SDS_P2;PMS_P1;PMS_P2;Temp;Humidity;BMP_temperature;BMP_pressure;BME280_temperature;BME280_humidity;BME280_pressure;Samples;Min_cycle;Max_cycle;Signal;HPM_P1;HPM_P2
2022/05/21 00:00:36;;;;;;;3.00;1.13;;;;;;;14.45;49.87;101587.88;2520335;23;20613;-65
2022/05/21 00:01:37;;;;;;;1.97;1.10;;;;;;;14.64;50.27;101589.00;2520745;23;20148;-65
2022/05/21 00:02:38;;;;;;;2.43;1.30;;;;;;;13.89;50.77;101474.16;2520727;23;20461;-65
2022/05/21 00:03:40;;;;;;;3.33;1.03;;;;;;;14.69;50.97;101597.66;2507554;23;20190;-65
2022/05/21 00:04:42;;;;;;;2.33;1.03;;;;;;;14.72;51.24;101599.56;2508457;23;20530;-65
2022/05/21 00:05:42;;;;;;;2.63;1.10;;;;;;;14.68;51.35;101606.44;2520643;23;20386;-65
2022/05/21 00:06:43;;;;;;;3.30;1.00;;;;;;;14.39;51.81;101569.34;2519939;23;20423;-65
2022/05/21 00:07:43;;;;;;;1.57;1.00;;;;;;;14.60;51.44;101594.69;2520697;23;20151;-65
2022/05/21 00:08:44;;;;;;;2.57;1.20;;;;;;;14.64;50.25;101594.59;2520606;23;20555;-65
2022/05/21 00:09:44;;;;;;;1.57;1.10;;;;;;;13.95;49.95;101481.56;2520758;23;20794;-65
2022/05/21 00:10:45;;;;;;;3.43;1.30;;;;;;;14.63;49.71;101588.25;2520207;23;20161;-65
2022/05/21 00:11:46;;;;;;;2.90;1.27;;;;;;;14.19;50.12;101524.00;2520880;23;20183;-65
2022/05/21 00:12:46;;;;;;;2.17;1.10;;;;;;;14.57;49.25;101592.78;2520860;23;20206;-65
2022/05/21 00:13:48;;;;;;;2.90;1.20;;;;;;;14.59;48.82;101581.16;2520846;23;20155;-65
2022/05/21 00:14:52;;;;;;;3.03;1.13;;;;;;;14.51;50.06;101565.84;2520786;23;20608;-65
2022/05/21 00:15:52;;;;;;;3.00;1.30;;;;;;;13.98;50.18;101483.47;2521127;23;20440;-65
2022/05/21 00:17:11;;;;;;;2.03;1.20;;;;;;;13.93;49.88;101472.84;2520612;23;20458;-65
2022/05/21 00:18:12;;;;;;;3.83;1.20;;;;;;;14.35;50.10;101541.50;2521422;23;20140;-65
2022/05/21 00:19:13;;;;;;;3.20;1.20;;;;;;;14.68;50.48;101582.13;2508398;23;21004;-65
2022/05/21 00:21:33;;;;;;;2.63;1.17;;;;;;;14.70;50.73;101584.50;2521530;23;20147;-65
2022/05/21 00:22:33;;;;;;;4.03;1.23;;;;;;;14.63;51.27;101582.66;2521687;23;20383;-65
2022/05/21 00:23:35;;;;;;;3.00;1.50;;;;;;;14.63;51.59;101579.88;2508685;23;20611;-65
2022/05/21 00:24:36;;;;;;;2.43;1.20;;;;;;;13.96;51.86;101477.56;2509115;23;20603;-65
2022/05/21 00:25:36;;;;;;;2.17;1.17;;;;;;;13.78;51.76;101457.69;2508780;23;20891;-65
2022/05/21 00:26:37;;;;;;;1.87;1.17;;;;;;;14.19;51.96;101512.84;2508355;23;20670;-65
2022/05/21 00:27:37;;;;;;;3.13;1.17;;;;;;;14.35;51.57;101541.50;2508159;23;20179;-65
2022/05/21 00:28:40;;;;;;;4.03;1.47;;;;;;;14.21;51.37;101521.56;2508644;23;20557;-65
2022/05/21 00:29:41;;;;;;;6.97;1.30;;;;;;;14.34;51.21;101548.31;2509157;23;20163;-65
2022/05/21 00:30:42;;;;;;;2.60;1.20;;;;;;;14.45;50.51;101568.34;2520895;23;20474;-65
2022/05/21 00:31:42;;;;;;;3.37;1.33;;;;;;;14.44;50.53;101571.59;2521488;23;20207;-65
2022/05/21 00:32:43;;;;;;;3.93;1.10;;;;;;;13.97;50.42;101497.81;2521520;23;20379;-65
2022/05/21 00:33:45;;;;;;;4.03;1.20;;;;;;;14.35;50.30;101577.75;2508676;23;20160;-65
2022/05/21 00:34:45;;;;;;;2.63;1.07;;;;;;;14.26;50.53;101572.03;2508991;23;20152;-65
2022/05/21 00:35:50;;;;;;;2.57;1.20;;;;;;;14.28;50.36;101571.56;2521494;23;20916;-65
2022/05/21 00:36:51;;;;;;;3.73;1.50;;;;;;;13.93;49.83;101536.94;2520668;23;20155;-65
2022/05/21 00:37:51;;;;;;;6.47;1.50;;;;;;;14.09;49.83;101575.19;2521232;23;20466;-65
2022/05/21 00:38:52;;;;;;;2.00;1.10;;;;;;;14.09;49.68;101567.59;2521213;23;20162;-65
2022/05/21 00:39:52;;;;;;;1.50;1.00;;;;;;;13.64;48.23;101510.94;2520933;23;20158;-65
2022/05/21 00:40:54;;;;;;;4.37;1.13;;;;;;;13.96;49.09;101552.78;2521086;23;20155;-65
2022/05/21 00:41:55;;;;;;;5.40;1.40;;;;;;;13.72;49.66;101498.41;2521466;23;20151;-65
2022/05/21 00:42:55;;;;;;;3.10;1.27;;;;;;;14.16;49.49;101559.09;2521371;23;20383;-65
2022/05/21 00:43:58;;;;;;;3.60;1.30;;;;;;;14.20;49.59;101567.41;2521598;23;20626;-65
2022/05/21 00:44:58;;;;;;;1.60;1.00;;;;;;;14.27;49.88;101558.84;2521317;23;20518;-65
2022/05/21 00:45:59;;;;;;;4.57;1.40;;;;;;;14.29;49.18;101559.22;2521410;23;20421;-65
2022/05/21 00:47:00;;;;;;;3.17;1.20;;;;;;;13.96;49.43;101515.78;2520586;23;20166;-65
2022/05/21 00:48:01;;;;;;;3.17;0.90;;;;;;;14.23;49.84;101547.00;2521283;23;20233;-65
2022/05/21 00:49:17;;;;;;;2.80;1.30;;;;;;;14.29;49.98;101553.66;2521065;23;20388;-65
2022/05/21 00:50:22;;;;;;;3.73;1.20;;;;;;;14.33;50.20;101554.31;2520861;23;20198;-65
2022/05/21 00:51:26;;;;;;;5.97;1.30;;;;;;;14.38;50.20;101551.81;2521369;23;20374;-65
2022/05/21 00:52:28;;;;;;;3.43;1.30;;;;;;;13.89;50.45;101483.28;2521459;23;20415;-65
2022/05/21 00:53:29;;;;;;;3.13;1.27;;;;;;;14.36;50.60;101557.06;2521285;23;20858;-65
2022/05/21 00:54:34;;;;;;;4.53;1.40;;;;;;;13.71;50.86;101441.16;2508698;23;20408;-65
2022/05/21 00:55:35;;;;;;;2.73;1.27;;;;;;;14.29;50.99;101532.09;2509652;23;20427;-65
2022/05/21 00:56:59;;;;;;;2.00;1.10;;;;;;;13.82;51.05;101466.75;2521056;23;20376;-65
2022/05/21 01:00:48;;;;;;;3.40;1.20;;;;;;;14.40;52.00;101545.81;2520788;23;20362;-65
2022/05/21 01:01:52;;;;;;;4.80;1.20;;;;;;;14.39;52.72;101549.81;2521326;23;20391;-65
2022/05/21 01:02:56;;;;;;;2.90;1.40;;;;;;;14.37;53.39;101547.47;2521305;23;20262;-65
2022/05/21 01:03:56;;;;;;;3.17;1.13;;;;;;;14.40;53.29;101541.00;2521431;23;20467;-65
2022/05/21 01:04:59;;;;;;;2.70;1.17;;;;;;;13.93;53.35;101477.66;2521202;23;20394;-65
2022/05/21 01:06:03;;;;;;;2.23;1.20;;;;;;;14.39;53.61;101544.25;2521418;23;20175;-65
2022/05/21 01:07:05;;;;;;;4.17;1.33;;;;;;;14.23;53.50;101517.13;2520451;23;20453;-65
2022/05/21 01:08:06;;;;;;;1.50;0.93;;;;;;;14.38;53.71;101542.66;2521259;23;20389;-65
2022/05/21 01:09:07;;;;;;;5.27;1.40;;;;;;;14.37;54.03;101543.88;2520954;23;20391;-65
2022/05/21 01:10:10;;;;;;;3.87;1.33;;;;;;;13.56;54.21;101425.97;2520716;23;20158;-65
2022/05/21 01:11:15;;;;;;;1.97;1.20;;;;;;;13.88;54.08;101475.38;2508442;23;20709;-65
2022/05/21 01:12:15;;;;;;;3.33;1.23;;;;;;;14.21;54.58;101527.16;2509651;23;20415;-65
2022/05/21 01:13:20;;;;;;;2.27;1.30;;;;;;;14.28;54.62;101538.91;2521166;23;20874;-65
2022/05/21 01:14:21;;;;;;;2.90;1.20;;;;;;;14.24;54.77;101560.50;2521469;23;20214;-65
2022/05/21 01:15:34;;;;;;;2.20;1.17;;;;;;;14.23;55.20;101545.00;2521228;23;20770;-65
2022/05/21 01:16:35;;;;;;;4.07;1.73;;;;;;;14.24;56.83;101541.00;2520966;23;20356;-64
2022/05/21 01:17:37;;;;;;;6.30;1.40;;;;;;;14.23;56.78;101541.44;2520572;23;20376;-65
2022/05/21 01:18:38;;;;;;;1.80;1.10;;;;;;;14.07;54.83;101539.41;2521131;23;20379;-65
2022/05/21 01:20:02;;;;;;;5.17;1.30;;;;;;;13.77;55.83;101500.69;2521209;23;20522;-64
2022/05/21 01:21:03;;;;;;;3.97;1.20;;;;;;;13.51;55.19;101484.97;2521432;23;20146;-64
2022/05/21 01:22:04;;;;;;;2.77;1.40;;;;;;;13.88;56.12;101533.91;2521330;23;20475;-65
2022/05/21 01:23:05;;;;;;;4.10;1.37;;;;;;;13.85;56.47;101543.91;2521056;23;20390;-65
2022/05/21 01:24:07;;;;;;;4.40;1.27;;;;;;;13.85;55.86;101540.31;2521334;23;20624;-64
2022/05/21 01:25:08;;;;;;;2.70;1.20;;;;;;;13.86;55.79;101537.09;2521386;23;20491;-65
2022/05/21 01:26:19;;;;;;;2.60;1.33;;;;;;;13.89;55.25;101541.78;2521293;23;20940;-64
2022/05/21 01:27:19;;;;;;;4.07;1.40;;;;;;;13.33;55.21;101462.28;2519752;23;20383;-65
2022/05/21 01:28:22;;;;;;;2.67;1.27;;;;;;;13.88;55.73;101536.69;2521275;23;20383;-65
2022/05/21 01:29:27;;;;;;;4.30;1.47;;;;;;;13.89;55.59;101557.75;2520808;23;20155;-64
2022/05/21 01:30:36;;;;;;;5.03;1.47;;;;;;;13.92;55.63;101535.38;2520675;23;20402;-65
2022/05/21 01:31:38;;;;;;;3.57;1.13;;;;;;;13.89;55.55;101525.06;2521206;23;20715;-65
2022/05/21 01:32:38;;;;;;;3.40;1.50;;;;;;;13.61;55.83;101489.53;2521391;23;20391;-65
2022/05/21 01:33:42;;;;;;;7.13;1.80;;;;;;;13.20;56.19;101430.78;2521049;23;20378;-64
2022/05/21 01:34:42;;;;;;;9.97;1.67;;;;;;;13.71;56.09;101498.84;2521312;23;20194;-64
2022/05/21 01:35:44;;;;;;;4.03;1.57;;;;;;;13.95;56.07;101528.94;2521192;23;20578;-65
2022/05/21 01:36:46;;;;;;;10.60;2.20;;;;;;;13.53;56.07;101463.03;2520440;23;20158;-65
2022/05/21 01:37:47;;;;;;;7.10;1.70;;;;;;;14.00;56.06;101536.78;2520882;23;20383;-65
2022/05/21 01:38:49;;;;;;;12.33;1.50;;;;;;;13.33;56.11;101439.25;2520996;23;20395;-65
2022/05/21 01:39:50;;;;;;;3.80;1.57;;;;;;;13.43;56.16;101450.13;2521008;23;20712;-65
2022/05/21 01:40:51;;;;;;;4.07;1.57;;;;;;;14.05;56.36;101538.25;2520923;23;20386;-65
2022/05/21 01:41:51;;;;;;;6.67;1.60;;;;;;;13.30;56.69;101424.19;2521076;23;20231;-65
2022/05/21 01:45:31;;;;;;;3.00;1.30;;;;;;;13.96;56.96;101524.13;2521164;23;20777;-65
2022/05/21 01:46:31;;;;;;;6.63;1.63;;;;;;;14.11;57.24;101528.16;2521214;23;20443;-65
2022/05/21 01:47:32;;;;;;;4.90;1.60;;;;;;;13.82;57.19;101493.81;2507337;23;20599;-65
2022/05/21 01:48:33;;;;;;;5.43;1.60;;;;;;;13.50;57.24;101432.50;2508363;23;20156;-65
2022/05/21 01:49:34;;;;;;;4.50;1.30;;;;;;;13.53;57.24;101440.75;2521023;23;20147;-65
2022/05/21 01:50:36;;;;;;;3.33;1.20;;;;;;;13.29;57.31;101394.78;2520664;23;20419;-65
2022/05/21 01:51:37;;;;;;;5.20;1.40;;;;;;;14.11;57.52;101512.22;2521050;23;20149;-65
2022/05/21 01:52:37;;;;;;;3.20;1.40;;;;;;;14.10;57.58;101504.28;2521178;23;20484;-65
2022/05/21 01:53:39;;;;;;;2.17;1.30;;;;;;;14.23;57.72;101533.06;2508323;23;20160;-65
2022/05/21 01:54:40;;;;;;;3.20;1.20;;;;;;;14.23;57.90;101527.47;2508901;23;20175;-65
2022/05/21 01:55:42;;;;;;;1.97;1.20;;;;;;;13.65;57.74;101440.09;2521052;23;20490;-64
2022/05/21 01:56:42;;;;;;;2.63;1.10;;;;;;;14.04;58.12;101492.88;2520376;23;20181;-65
2022/05/21 01:57:43;;;;;;;3.23;1.27;;;;;;;14.24;58.10;101532.63;2520837;23;20390;-65
2022/05/21 01:58:44;;;;;;;3.77;1.27;;;;;;;13.77;58.37;101458.91;2520841;23;20159;-65
2022/05/21 01:59:45;;;;;;;3.53;1.40;;;;;;;14.22;58.54;101523.94;2521029;23;20155;-65
2022/05/21 02:00:46;;;;;;;2.67;1.40;;;;;;;14.22;59.14;101523.13;2520445;23;20893;-64
2022/05/21 02:01:48;;;;;;;5.43;1.50;;;;;;;14.21;59.59;101527.94;2521163;23;20732;-65
2022/05/21 02:02:48;;;;;;;3.80;1.57;;;;;;;14.11;60.40;101531.75;2520906;23;20791;-65
2022/05/21 02:03:49;;;;;;;3.27;1.43;;;;;;;14.11;60.88;101531.75;2521119;23;20862;-65
2022/05/21 02:04:49;;;;;;;2.57;1.30;;;;;;;14.17;60.95;101534.78;2521108;23;20617;-65
2022/05/21 02:05:51;;;;;;;3.37;1.10;;;;;;;14.10;61.20;101534.94;2520917;23;20151;-65
2022/05/21 02:06:51;;;;;;;3.77;1.70;;;;;;;14.00;61.29;101528.44;2507604;23;20168;-65
2022/05/21 02:07:51;;;;;;;7.00;1.90;;;;;;;13.90;61.88;101523.88;2508295;23;20472;-65
2022/05/21 02:08:53;;;;;;;5.93;2.17;;;;;;;14.05;61.82;101530.69;2520865;23;20638;-65
2022/05/21 02:09:53;;;;;;;6.57;2.00;;;;;;;14.10;61.88;101529.38;2520728;23;20584;-65
2022/05/21 02:10:54;;;;;;;2.83;1.43;;;;;;;14.15;62.27;101531.66;2508228;23;20821;-65
2022/05/21 02:11:54;;;;;;;3.93;1.60;;;;;;;13.83;62.25;101484.25;2508132;23;20183;-65
2022/05/21 02:12:55;;;;;;;4.50;1.80;;;;;;;14.15;62.15;101531.66;2508162;23;20194;-65
2022/05/21 02:13:55;;;;;;;7.50;2.10;;;;;;;14.06;62.37;101509.97;2508563;23;20242;-64
2022/05/21 02:14:56;;;;;;;10.37;2.10;;;;;;;13.74;62.34;101461.78;2521006;23;20156;-65
2022/05/21 02:15:57;;;;;;;3.93;1.70;;;;;;;14.03;62.67;101524.75;2521160;23;20601;-65
2022/05/21 02:16:58;;;;;;;6.90;1.80;;;;;;;13.80;63.06;101485.09;2520144;23;20178;-65
2022/05/21 02:17:58;;;;;;;4.77;1.50;;;;;;;14.16;63.12;101530.44;2520936;23;20418;-65
2022/05/21 02:19:01;;;;;;;4.80;1.70;;;;;;;14.15;63.03;101517.72;2520672;23;20603;-65
2022/05/21 02:20:03;;;;;;;4.60;1.60;;;;;;;14.17;63.26;101520.84;2520421;23;20211;-65
2022/05/21 02:21:03;;;;;;;3.67;1.60;;;;;;;14.17;63.54;101526.41;2520880;23;20865;-65
2022/05/21 02:22:04;;;;;;;3.20;1.30;;;;;;;14.17;63.63;101521.63;2521137;23;20731;-65
2022/05/21 02:23:05;;;;;;;4.40;1.60;;;;;;;14.20;63.61;101515.19;2520924;23;20158;-65
2022/05/21 02:24:10;;;;;;;3.50;1.30;;;;;;;14.20;63.81;101523.56;2521136;23;20156;-65
2022/05/21 02:25:11;;;;;;;3.60;1.57;;;;;;;14.24;64.05;101518.69;2520895;23;20438;-65
2022/05/21 02:26:11;;;;;;;2.60;1.50;;;;;;;14.30;63.88;101524.53;2508391;23;20487;-64
2022/05/21 02:27:14;;;;;;;5.40;1.47;;;;;;;14.34;63.98;101516.88;2507504;23;20156;-65
2022/05/21 02:28:16;;;;;;;2.83;1.20;;;;;;;13.97;63.76;101467.19;2520981;23;20159;-65
2022/05/21 02:29:18;;;;;;;3.60;1.83;;;;;;;14.34;63.79;101525.25;2520661;23;20470;-65
2022/05/21 02:30:18;;;;;;;5.20;1.40;;;;;;;14.01;63.84;101471.47;2520501;23;20415;-65
2022/05/21 02:31:19;;;;;;;3.00;1.50;;;;;;;14.34;63.54;101514.09;2520988;23;20924;-65
2022/05/21 02:32:19;;;;;;;4.37;1.93;;;;;;;14.37;63.52;101519.56;2521449;23;20468;-65
2022/05/21 02:33:20;;;;;;;5.33;1.80;;;;;;;14.35;63.41;101518.44;2520855;23;20213;-65
2022/05/21 02:34:21;;;;;;;4.60;1.47;;;;;;;13.92;63.33;101456.53;2508374;23;20152;-65
2022/05/21 02:35:22;;;;;;;5.87;1.50;;;;;;;13.82;63.67;101441.66;2508212;23;20470;-65
2022/05/21 02:39:25;;;;;;;2.97;1.63;;;;;;;14.37;63.61;101514.00;2508478;23;20599;-65
2022/05/21 02:40:20;;;;;;;3.93;1.30;;;;;;;14.34;63.43;101514.84;2520448;23;20865;-65
2022/05/21 02:41:22;;;;;;;2.93;1.37;;;;;;;14.05;63.38;101474.16;2508003;23;20768;-65
2022/05/21 02:43:43;;;;;;;7.00;1.50;;;;;;;14.07;63.61;101517.09;2521112;23;20439;-65
2022/05/21 02:44:43;;;;;;;3.90;1.30;;;;;;;13.40;63.71;101428.75;2521013;23;20912;-65
2022/05/21 02:45:44;;;;;;;3.53;1.33;;;;;;;14.09;64.03;101516.66;2520950;23;20383;-65
2022/05/21 02:46:44;;;;;;;4.63;1.30;;;;;;;14.12;63.58;101515.78;2520155;23;20641;-64
2022/05/21 02:47:46;;;;;;;2.47;1.30;;;;;;;13.95;63.54;101489.13;2520715;23;20590;-65
2022/05/21 02:48:46;;;;;;;3.00;1.50;;;;;;;13.71;63.32;101449.50;2520723;23;20155;-64
2022/05/21 02:49:47;;;;;;;5.77;1.53;;;;;;;14.25;63.24;101514.69;2520903;23;20376;-65
2022/05/21 02:50:47;;;;;;;4.40;1.37;;;;;;;13.69;62.93;101428.88;2520419;23;20179;-65
2022/05/21 02:51:48;;;;;;;3.30;1.30;;;;;;;13.95;62.84;101459.28;2521023;23;20155;-65
2022/05/21 02:52:49;;;;;;;4.77;1.37;;;;;;;14.33;62.96;101516.09;2520906;23;20508;-65
2022/05/21 02:53:49;;;;;;;3.57;1.53;;;;;;;14.16;62.68;101483.03;2521113;23;20173;-65
2022/05/21 02:54:50;;;;;;;3.80;1.40;;;;;;;14.34;62.34;101522.47;2508276;23;20168;-65
2022/05/21 02:55:53;;;;;;;2.73;1.23;;;;;;;14.33;62.26;101529.22;2508321;23;20235;-65
2022/05/21 02:56:53;;;;;;;4.40;1.30;;;;;;;14.37;62.17;101518.78;2520137;23;20233;-65
2022/05/21 02:57:55;;;;;;;3.53;1.33;;;;;;;14.38;62.33;101523.94;2520751;23;20387;-65
2022/05/21 02:58:56;;;;;;;2.20;1.23;;;;;;;13.76;62.52;101443.41;2520803;23;20505;-65
2022/05/21 03:00:19;;;;;;;3.73;1.30;;;;;;;14.42;62.32;101524.63;2507642;23;20387;-64
2022/05/21 03:01:20;;;;;;;1.97;1.10;;;;;;;13.98;62.23;101466.75;2512434;23;20159;-65
2022/05/21 03:02:21;;;;;;;2.27;1.10;;;;;;;14.39;62.33;101536.63;2508197;23;20974;-64
2022/05/21 03:03:21;;;;;;;2.67;1.30;;;;;;;14.30;62.40;101521.75;2508135;23;20223;-65
2022/05/21 03:04:22;;;;;;;2.93;1.10;;;;;;;14.30;62.27;101516.19;2509118;23;20381;-65
2022/05/21 03:05:23;;;;;;;3.30;1.20;;;;;;;14.46;62.43;101535.69;2508968;23;20176;-64
2022/05/21 03:06:24;;;;;;;1.90;1.23;;;;;;;14.47;62.51;101532.47;2509085;23;20203;-65
2022/05/21 03:07:24;;;;;;;2.77;1.50;;;;;;;14.23;62.56;101499.59;2507102;23;20397;-65
2022/05/21 03:11:03;;;;;;;3.27;1.00;;;;;;;14.55;62.41;101549.81;2508990;23;20389;-65
2022/05/21 03:12:04;;;;;;;3.03;1.37;;;;;;;14.57;62.38;101538.97;2509066;23;20734;-65
2022/05/21 03:13:04;;;;;;;3.03;1.20;;;;;;;14.56;62.48;101546.56;2508886;23;20238;-65
2022/05/21 03:14:05;;;;;;;3.07;1.20;;;;;;;14.18;62.09;101480.59;2509172;23;20870;-65
2022/05/21 03:15:06;;;;;;;2.27;1.30;;;;;;;14.61;62.14;101543.25;2509034;23;20153;-65
2022/05/21 03:16:07;;;;;;;2.13;1.10;;;;;;;14.44;62.08;101513.03;2509152;23;20160;-65
2022/05/21 03:17:07;;;;;;;2.13;1.00;;;;;;;14.61;62.20;101542.47;2508048;23;20385;-65
2022/05/21 03:18:11;;;;;;;3.93;1.33;;;;;;;14.64;62.22;101547.16;2508840;23;20631;-65
2022/05/21 03:19:12;;;;;;;1.47;1.00;;;;;;;14.52;62.17;101526.34;2508677;23;20255;-65
2022/05/21 03:20:15;;;;;;;2.73;1.30;;;;;;;14.68;62.19;101542.28;2507635;23;20400;-64
2022/05/21 03:21:15;;;;;;;1.57;1.07;;;;;;;14.72;62.13;101548.56;2508273;23;20162;-65
2022/05/21 03:22:16;;;;;;;2.67;1.20;;;;;;;14.66;61.92;101537.13;2509101;23;20420;-65
2022/05/21 03:23:16;;;;;;;3.27;1.17;;;;;;;14.73;61.96;101531.38;2508980;23;20181;-65
2022/05/21 03:24:17;;;;;;;2.07;1.20;;;;;;;14.74;61.73;101538.53;2509092;23;20152;-65
2022/05/21 03:25:17;;;;;;;2.33;1.00;;;;;;;14.82;61.73;101544.69;2509136;23;20220;-65
2022/05/21 03:26:18;;;;;;;3.60;1.30;;;;;;;14.79;61.64;101529.63;2509094;23;20177;-65
2022/05/21 03:27:18;;;;;;;2.87;1.20;;;;;;;14.87;61.82;101544.16;2507813;23;20164;-65
2022/05/21 03:28:19;;;;;;;3.63;1.23;;;;;;;14.49;60.94;101487.41;2508273;23;20200;-65
2022/05/21 03:29:20;;;;;;;2.00;1.20;;;;;;;14.89;60.01;101544.50;2507811;23;20164;-65
2022/05/21 03:30:23;;;;;;;2.10;1.20;;;;;;;14.60;60.63;101490.69;2507687;23;20412;-65
2022/05/21 03:31:24;;;;;;;5.33;1.60;;;;;;;14.95;60.95;101537.16;2508030;23;20162;-65
2022/05/21 03:32:25;;;;;;;2.70;1.20;;;;;;;14.50;60.96;101464.63;2508409;23;20383;-65
2022/05/21 03:33:25;;;;;;;2.00;1.13;;;;;;;15.01;60.29;101538.22;2508873;23;20160;-65
2022/05/21 03:34:26;;;;;;;2.70;1.23;;;;;;;14.75;59.60;101503.03;2509122;23;20226;-65
2022/05/21 03:35:27;;;;;;;2.83;1.10;;;;;;;15.03;59.59;101533.75;2508989;23;20630;-65
2022/05/21 03:36:27;;;;;;;5.00;1.30;;;;;;;14.29;59.51;101417.03;2508296;23;20271;-65
2022/05/21 03:37:27;;;;;;;3.90;1.20;;;;;;;15.03;59.52;101530.16;2507100;23;20423;-65
2022/05/21 03:38:28;;;;;;;3.27;1.10;;;;;;;14.45;57.33;101442.84;2508892;23;20152;-65
2022/05/21 03:39:28;;;;;;;4.50;1.33;;;;;;;14.58;57.13;101449.28;2508789;23;20162;-65
2022/05/21 03:40:31;;;;;;;2.93;1.30;;;;;;;15.13;57.45;101538.25;2508415;23;20156;-65
2022/05/21 03:41:32;;;;;;;2.97;1.00;;;;;;;15.06;57.83;101515.34;2507966;23;20161;-65
2022/05/21 03:42:32;;;;;;;4.03;1.13;;;;;;;14.87;57.68;101480.78;2508270;23;20382;-65
2022/05/21 03:43:33;;;;;;;3.27;1.20;;;;;;;15.16;57.71;101520.59;2508848;23;20662;-65
2022/05/21 03:44:33;;;;;;;3.93;0.90;;;;;;;15.28;57.59;101535.84;2509144;23;20232;-65
2022/05/21 03:45:34;;;;;;;3.73;1.17;;;;;;;15.32;57.20;101542.88;2508839;23;20483;-65
2022/05/21 03:46:38;;;;;;;3.20;1.10;;;;;;;15.11;56.85;101506.44;2507678;23;20180;-65
2022/05/21 03:47:41;;;;;;;3.10;1.33;;;;;;;15.38;56.38;101534.78;2507985;23;20165;-65
2022/05/21 03:48:42;;;;;;;4.13;1.00;;;;;;;15.41;56.79;101539.47;2508786;23;20402;-65
2022/05/21 03:49:42;;;;;;;4.67;1.10;;;;;;;15.03;56.92;101472.34;2508838;23;20867;-65
2022/05/21 03:50:43;;;;;;;2.40;0.90;;;;;;;15.20;55.49;101506.53;2508684;23;20764;-65
2022/05/21 03:51:44;;;;;;;4.27;1.20;;;;;;;14.67;55.42;101427.13;2509791;23;20162;-65
2022/05/21 03:52:44;;;;;;;2.27;1.13;;;;;;;15.19;56.13;101502.19;2509562;23;20417;-65
2022/05/21 03:53:45;;;;;;;2.90;1.20;;;;;;;15.50;54.09;101537.59;2509755;23;20157;-65
2022/05/21 03:54:46;;;;;;;2.30;1.10;;;;;;;15.56;53.79;101538.63;2509774;23;20678;-65
2022/05/21 03:55:47;;;;;;;3.40;1.20;;;;;;;15.50;54.28;101520.03;2509757;23;20204;-65
2022/05/21 03:56:48;;;;;;;2.23;1.10;;;;;;;15.62;54.69;101536.84;2508053;23;20385;-65
2022/05/21 03:57:49;;;;;;;3.93;1.30;;;;;;;15.56;53.53;101521.84;2508768;23;20388;-65
2022/05/21 03:58:49;;;;;;;4.97;1.33;;;;;;;15.66;52.60;101528.34;2509629;23;20608;-65
2022/05/21 03:59:50;;;;;;;4.07;1.13;;;;;;;15.63;49.67;101523.66;2509286;23;20684;-65
2022/05/21 04:00:50;;;;;;;1.63;0.93;;;;;;;15.37;50.81;101480.91;2508598;23;20161;-65
2022/05/21 04:01:51;;;;;;;1.63;0.90;;;;;;;15.03;51.21;101419.31;2508498;23;20162;-65
2022/05/21 04:02:51;;;;;;;4.07;1.10;;;;;;;15.77;47.41;101520.44;2509718;23;20161;-65
2022/05/21 04:03:54;;;;;;;2.10;1.03;;;;;;;15.80;45.13;101511.94;2509740;23;20153;-65
2022/05/21 04:04:56;;;;;;;2.20;1.17;;;;;;;15.77;45.45;101510.03;2509472;23;20186;-65
2022/05/21 04:05:57;;;;;;;3.73;1.10;;;;;;;15.34;44.85;101459.47;2509660;23;20738;-65
2022/05/21 04:06:58;;;;;;;2.93;1.20;;;;;;;15.39;45.06;101466.50;2508887;23;20604;-65
2022/05/21 04:07:58;;;;;;;3.83;1.10;;;;;;;15.84;44.61;101523.00;2509510;23;20476;-65
2022/05/21 04:08:59;;;;;;;3.83;1.00;;;;;;;15.85;45.12;101527.34;2509314;23;20236;-65
2022/05/21 04:10:00;;;;;;;4.13;1.00;;;;;;;15.86;44.18;101520.53;2509124;23;20161;-65
2022/05/21 04:11:01;;;;;;;2.67;1.13;;;;;;;15.91;44.15;101529.16;2509562;23;20648;-65
2022/05/21 04:12:03;;;;;;;2.87;1.10;;;;;;;15.58;44.27;101471.88;2497040;23;20169;-65
2022/05/21 04:13:03;;;;;;;3.87;1.10;;;;;;;15.94;44.30;101535.88;2497075;23;20428;-65
2022/05/21 04:14:06;;;;;;;3.77;1.03;;;;;;;15.37;44.80;101447.41;2509639;23;20386;-65
2022/05/21 04:15:09;;;;;;;3.63;1.20;;;;;;;15.57;46.58;101472.34;2509620;23;20156;-65
2022/05/21 04:16:09;;;;;;;3.27;1.10;;;;;;;16.05;47.49;101539.09;2497114;23;20380;-65
2022/05/21 04:17:13;;;;;;;6.50;1.43;;;;;;;16.10;46.50;101530.94;2495986;23;20440;-65
2022/05/21 04:18:14;;;;;;;3.70;1.23;;;;;;;16.05;45.26;101519.53;2496859;23;20160;-65
2022/05/21 04:19:14;;;;;;;2.57;1.10;;;;;;;16.15;44.75;101541.56;2496690;23;20468;-65
2022/05/21 04:20:17;;;;;;;3.07;1.20;;;;;;;16.15;46.95;101530.38;2509064;23;20159;-65
2022/05/21 04:21:17;;;;;;;4.90;1.50;;;;;;;16.22;46.35;101534.94;2509494;23;20162;-65
2022/05/21 04:22:18;;;;;;;5.27;1.40;;;;;;;16.23;45.06;101537.31;2509707;23;20519;-65
2022/05/21 04:23:18;;;;;;;6.20;1.30;;;;;;;16.24;45.67;101536.06;2509496;23;20174;-65
2022/05/21 04:24:19;;;;;;;5.13;1.40;;;;;;;15.68;45.59;101453.25;2497040;23;20563;-65
2022/05/21 04:25:20;;;;;;;2.97;1.10;;;;;;;16.25;44.72;101534.81;2497019;23;20161;-65
2022/05/21 04:26:21;;;;;;;3.83;1.40;;;;;;;16.30;44.68;101527.91;2509712;23;20187;-65
2022/05/21 04:27:22;;;;;;;2.83;1.20;;;;;;;16.20;45.37;101507.44;2508474;23;20386;-65
2022/05/21 04:28:22;;;;;;;5.00;1.20;;;;;;;16.43;46.08;101525.88;2509627;23;20382;-65
2022/05/21 04:29:23;;;;;;;4.30;1.27;;;;;;;16.46;46.91;101522.19;2509223;23;20498;-65
2022/05/21 04:30:28;;;;;;;6.27;1.20;;;;;;;16.51;46.84;101527.22;2508941;23;20215;-65
2022/05/21 04:31:28;;;;;;;4.17;1.40;;;;;;;15.87;46.80;101427.84;2509498;23;20152;-65
2022/05/21 04:32:28;;;;;;;3.90;1.20;;;;;;;16.54;45.33;101531.91;2497028;23;20388;-65
2022/05/21 04:33:29;;;;;;;4.67;1.33;;;;;;;16.61;44.36;101520.47;2496848;23;20155;-65
2022/05/21 04:34:30;;;;;;;4.53;1.40;;;;;;;16.47;44.90;101512.56;2509711;23;20178;-65
2022/05/21 04:36:50;;;;;;;3.33;1.13;;;;;;;16.11;44.90;101453.41;2500308;23;20561;-65
2022/05/21 04:37:51;;;;;;;3.53;1.23;;;;;;;16.66;45.01;101531.88;2509341;23;20376;-65
2022/05/21 04:38:53;;;;;;;4.50;1.43;;;;;;;16.49;45.69;101501.72;2509463;23;20163;-65
2022/05/21 04:39:54;;;;;;;3.33;1.50;;;;;;;16.70;45.15;101529.72;2509023;23;20388;-65
2022/05/21 04:40:54;;;;;;;3.37;1.30;;;;;;;16.62;45.42;101512.88;2509423;23;20420;-65
2022/05/21 04:41:55;;;;;;;2.90;1.20;;;;;;;16.80;45.46;101531.38;2509572;23;20151;-65
2022/05/21 04:42:56;;;;;;;3.60;1.27;;;;;;;16.22;45.53;101443.44;2509369;23;20184;-65
2022/05/21 04:43:56;;;;;;;3.10;1.17;;;;;;;16.73;46.07;101524.47;2509702;23;20383;-65
2022/05/21 04:44:57;;;;;;;5.47;1.07;;;;;;;16.20;46.25;101437.53;2509454;23;20227;-65
2022/05/21 04:45:57;;;;;;;3.97;1.30;;;;;;;16.83;46.93;101521.28;2509606;23;20183;-65
2022/05/21 04:46:59;;;;;;;2.70;1.10;;;;;;;16.97;46.77;101532.00;2495899;23;20159;-65
2022/05/21 04:48:03;;;;;;;3.77;1.20;;;;;;;16.85;45.83;101510.44;2496667;23;20550;-65
2022/05/21 04:49:04;;;;;;;3.23;1.10;;;;;;;17.07;46.49;101525.22;2497350;23;20384;-65
2022/05/21 04:50:07;;;;;;;2.07;1.00;;;;;;;17.05;46.26;101531.28;2508821;23;20379;-65
2022/05/21 04:51:08;;;;;;;4.20;1.20;;;;;;;16.43;46.03;101436.34;2509451;23;20663;-65
2022/05/21 04:52:08;;;;;;;4.47;1.30;;;;;;;17.05;46.23;101519.31;2509635;23;20461;-65
2022/05/21 04:53:09;;;;;;;4.43;1.10;;;;;;;17.17;45.88;101535.28;2496621;23;20464;-65
2022/05/21 04:54:09;;;;;;;2.73;1.20;;;;;;;17.16;46.59;101530.91;2496916;23;20265;-65
2022/05/21 04:55:10;;;;;;;4.60;1.20;;;;;;;16.93;46.39;101494.94;2496769;23;20208;-65
2022/05/21 04:56:11;;;;;;;3.57;1.03;;;;;;;17.27;46.44;101529.25;2497115;23;20160;-65
2022/05/21 04:57:12;;;;;;;2.57;1.07;;;;;;;17.16;46.43;101517.66;2508521;23;20392;-65
2022/05/21 04:58:12;;;;;;;4.53;1.27;;;;;;;17.34;46.30;101531.81;2509397;23;20653;-65
2022/05/21 04:59:13;;;;;;;4.13;1.40;;;;;;;17.38;45.84;101531.69;2509066;23;20618;-65
2022/05/21 05:00:14;;;;;;;3.50;1.00;;;;;;;17.27;46.02;101508.88;2508832;23;20660;-65
2022/05/21 05:01:15;;;;;;;4.60;1.10;;;;;;;17.40;45.88;101528.47;2509386;23;20156;-65